Kisangani Simisini Airport


Codes: FZIA/
Name: Kisangani Simisini Airport
City:
Country: Congo [DRC]
Elevation: 1289 ft.

Photos at Kisangani Simisini Airport


   Photos courtesy of SpottingLog. You can add your own sightings and photos by signing up for a free trial today.



No photos found.

Weather at Kisangani Simisini Airport


Time (UTC)DescriptionTempratureWindCloud coverageVisibilityPressureHumidity
15-Apr-2024 18:00Light Rain30°C0 mph, NE91%10000m1006hPa62%
15-Apr-2024 21:00Light Rain26°C2 mph, E80%9079m1009hPa81%
16-Apr-2024 00:00Moderate Rain22°C4 mph, N85%1708m1012hPa99%
16-Apr-2024 03:00Light Rain22°C2 mph, W100%10000m1011hPa99%
16-Apr-2024 06:00Overcast Clouds24°C2 mph, S99%10000m1012hPa94%
16-Apr-2024 09:00Overcast Clouds31°C2 mph, S100%10000m1011hPa57%
16-Apr-2024 12:00Overcast Clouds32°C2 mph, NE100%10000m1008hPa54%
16-Apr-2024 15:00Broken Clouds33°C0 mph, NE63%10000m1005hPa49%
16-Apr-2024 18:00Scattered Clouds26°C2 mph, NE50%10000m1008hPa76%
16-Apr-2024 21:00Broken Clouds24°C2 mph, E57%10000m1009hPa85%
17-Apr-2024 00:00Broken Clouds24°C2 mph, E78%10000m1008hPa86%
17-Apr-2024 03:00Light Rain22°C2 mph, SE100%10000m1009hPa94%
17-Apr-2024 06:00Overcast Clouds25°C4 mph, SE100%10000m1010hPa81%
17-Apr-2024 09:00Overcast Clouds33°C4 mph, SE97%10000m1009hPa46%
17-Apr-2024 12:00Broken Clouds38°C2 mph, E75%10000m1005hPa32%
17-Apr-2024 15:00Broken Clouds36°C2 mph, E80%10000m1003hPa39%
17-Apr-2024 18:00Overcast Clouds27°C2 mph, SW87%10000m1006hPa66%
17-Apr-2024 21:00Light Rain23°C2 mph, S100%10000m1009hPa94%
18-Apr-2024 00:00Light Rain22°C2 mph, E100%10000m1008hPa98%
18-Apr-2024 03:00Light Rain22°C2 mph, E100%10000m1009hPa98%
18-Apr-2024 06:00Overcast Clouds24°C2 mph, SE100%10000m1011hPa93%
18-Apr-2024 09:00Overcast Clouds32°C4 mph, SE98%10000m1010hPa53%
18-Apr-2024 12:00Overcast Clouds36°C2 mph, SW98%10000m1006hPa39%
18-Apr-2024 15:00Broken Clouds35°C2 mph, NW72%10000m1003hPa45%
18-Apr-2024 18:00Broken Clouds28°C0 mph, SW52%10000m1005hPa65%
18-Apr-2024 21:00Light Rain26°C2 mph, N73%10000m1007hPa78%
19-Apr-2024 00:00Light Rain22°C4 mph, N87%10000m1009hPa99%
19-Apr-2024 03:00Light Rain23°C2 mph, NW100%10000m1009hPa99%
19-Apr-2024 06:00Overcast Clouds24°C2 mph, SW100%10000m1011hPa95%
19-Apr-2024 09:00Broken Clouds33°C4 mph, SW81%10000m1009hPa52%
19-Apr-2024 12:00Overcast Clouds36°C4 mph, SW90%10000m1005hPa39%
19-Apr-2024 15:00Overcast Clouds31°C2 mph, SW98%10000m1004hPa57%
19-Apr-2024 18:00Broken Clouds26°C4 mph, NW79%10000m1005hPa78%
19-Apr-2024 21:00Broken Clouds25°C4 mph, W82%10000m1007hPa82%
20-Apr-2024 00:00Moderate Rain22°C4 mph, NE91%5255m1008hPa99%
20-Apr-2024 03:00Heavy Intensity Rain21°C4 mph, E100%1521m1008hPa99%
20-Apr-2024 06:00Heavy Intensity Rain21°C4 mph, NW100%10000m1012hPa99%
20-Apr-2024 09:00Light Rain22°C2 mph, SW100%10000m1014hPa98%
20-Apr-2024 12:00Light Rain24°C4 mph, SW100%10000m1010hPa87%
20-Apr-2024 15:00Overcast Clouds25°C4 mph, SW100%10000m1008hPa73%